sensor_id;sensor_type;location;lat;lon;timestamp;P1;durP1;ratioP1;P2;durP2;ratioP2
7545;SDS011;3814;51.454;12.616;2022-12-29T00:01:51;2.13;;;1.10;;
7545;SDS011;3814;51.454;12.616;2022-12-29T00:04:17;2.65;;;0.98;;
7545;SDS011;3814;51.454;12.616;2022-12-29T00:06:43;2.28;;;1.13;;
7545;SDS011;3814;51.454;12.616;2022-12-29T00:09:08;2.47;;;1.30;;
7545;SDS011;3814;51.454;12.616;2022-12-29T00:11:36;2.97;;;1.20;;
7545;SDS011;3814;51.454;12.616;2022-12-29T00:14:01;2.78;;;1.20;;
7545;SDS011;3814;51.454;12.616;2022-12-29T00:16:45;2.25;;;1.25;;
7545;SDS011;3814;51.454;12.616;2022-12-29T00:19:11;2.63;;;1.20;;
7545;SDS011;3814;51.454;12.616;2022-12-29T00:21:56;3.08;;;1.17;;
7545;SDS011;3814;51.454;12.616;2022-12-29T00:24:40;4.15;;;1.35;;
7545;SDS011;3814;51.454;12.616;2022-12-29T00:27:25;3.08;;;1.08;;
7545;SDS011;3814;51.454;12.616;2022-12-29T00:30:10;2.83;;;1.00;;
7545;SDS011;3814;51.454;12.616;2022-12-29T00:33:17;2.55;;;1.00;;
7545;SDS011;3814;51.454;12.616;2022-12-29T00:36:10;2.35;;;0.95;;
7545;SDS011;3814;51.454;12.616;2022-12-29T00:38:39;3.88;;;1.30;;
7545;SDS011;3814;51.454;12.616;2022-12-29T00:41:24;3.38;;;1.10;;
7545;SDS011;3814;51.454;12.616;2022-12-29T00:44:08;3.22;;;1.30;;
7545;SDS011;3814;51.454;12.616;2022-12-29T00:46:38;2.53;;;1.17;;
7545;SDS011;3814;51.454;12.616;2022-12-29T00:49:05;2.72;;;1.30;;
7545;SDS011;3814;51.454;12.616;2022-12-29T00:51:50;1.95;;;1.00;;
7545;SDS011;3814;51.454;12.616;2022-12-29T00:54:16;4.60;;;1.13;;
7545;SDS011;3814;51.454;12.616;2022-12-29T00:56:41;3.55;;;1.40;;
7545;SDS011;3814;51.454;12.616;2022-12-29T00:59:08;4.82;;;1.40;;
7545;SDS011;3814;51.454;12.616;2022-12-29T01:01:35;2.35;;;1.10;;
7545;SDS011;3814;51.454;12.616;2022-12-29T01:04:02;5.68;;;1.20;;
7545;SDS011;3814;51.454;12.616;2022-12-29T01:06:27;2.65;;;1.30;;
7545;SDS011;3814;51.454;12.616;2022-12-29T01:08:53;2.75;;;1.27;;
7545;SDS011;3814;51.454;12.616;2022-12-29T01:11:37;3.75;;;1.35;;
7545;SDS011;3814;51.454;12.616;2022-12-29T01:14:03;2.50;;;1.20;;
7545;SDS011;3814;51.454;12.616;2022-12-29T01:16:29;2.35;;;1.10;;
7545;SDS011;3814;51.454;12.616;2022-12-29T01:18:55;2.83;;;1.23;;
7545;SDS011;3814;51.454;12.616;2022-12-29T01:21:20;2.05;;;1.23;;
7545;SDS011;3814;51.454;12.616;2022-12-29T01:23:45;2.50;;;1.13;;
7545;SDS011;3814;51.454;12.616;2022-12-29T01:26:14;2.70;;;1.38;;
7545;SDS011;3814;51.454;12.616;2022-12-29T01:28:41;3.25;;;1.10;;
7545;SDS011;3814;51.454;12.616;2022-12-29T01:31:10;2.50;;;1.13;;
7545;SDS011;3814;51.454;12.616;2022-12-29T01:33:36;1.80;;;1.10;;
7545;SDS011;3814;51.454;12.616;2022-12-29T01:36:05;2.03;;;1.05;;
7545;SDS011;3814;51.454;12.616;2022-12-29T01:38:33;2.20;;;1.13;;
7545;SDS011;3814;51.454;12.616;2022-12-29T01:40:59;2.20;;;1.20;;
7545;SDS011;3814;51.454;12.616;2022-12-29T01:46:04;2.90;;;1.20;;
7545;SDS011;3814;51.454;12.616;2022-12-29T01:48:37;2.03;;;1.00;;
7545;SDS011;3814;51.454;12.616;2022-12-29T01:51:02;2.70;;;1.13;;
7545;SDS011;3814;51.454;12.616;2022-12-29T01:53:28;1.92;;;1.13;;
7545;SDS011;3814;51.454;12.616;2022-12-29T01:55:56;2.40;;;1.10;;
7545;SDS011;3814;51.454;12.616;2022-12-29T01:58:26;2.50;;;1.20;;
7545;SDS011;3814;51.454;12.616;2022-12-29T02:00:54;3.70;;;1.02;;
7545;SDS011;3814;51.454;12.616;2022-12-29T02:03:20;2.65;;;1.10;;
7545;SDS011;3814;51.454;12.616;2022-12-29T02:05:51;1.83;;;1.10;;
7545;SDS011;3814;51.454;12.616;2022-12-29T02:08:23;2.50;;;1.00;;
7545;SDS011;3814;51.454;12.616;2022-12-29T02:10:51;3.28;;;1.20;;
7545;SDS011;3814;51.454;12.616;2022-12-29T02:13:17;2.13;;;1.02;;
7545;SDS011;3814;51.454;12.616;2022-12-29T02:24:35;2.25;;;1.15;;
7545;SDS011;3814;51.454;12.616;2022-12-29T02:32:42;3.15;;;1.20;;
7545;SDS011;3814;51.454;12.616;2022-12-29T02:38:20;3.60;;;1.10;;
7545;SDS011;3814;51.454;12.616;2022-12-29T02:40:58;4.25;;;1.33;;
7545;SDS011;3814;51.454;12.616;2022-12-29T02:43:33;3.85;;;1.30;;
7545;SDS011;3814;51.454;12.616;2022-12-29T02:46:15;2.40;;;1.20;;
7545;SDS011;3814;51.454;12.616;2022-12-29T02:48:50;2.38;;;1.20;;
7545;SDS011;3814;51.454;12.616;2022-12-29T02:52:05;2.03;;;1.10;;
7545;SDS011;3814;51.454;12.616;2022-12-29T02:54:08;2.30;;;1.30;;
7545;SDS011;3814;51.454;12.616;2022-12-29T02:56:53;2.58;;;1.30;;
7545;SDS011;3814;51.454;12.616;2022-12-29T02:59:18;1.92;;;1.20;;
7545;SDS011;3814;51.454;12.616;2022-12-29T03:02:06;3.03;;;1.08;;
7545;SDS011;3814;51.454;12.616;2022-12-29T03:10:46;3.20;;;1.20;;
7545;SDS011;3814;51.454;12.616;2022-12-29T03:16:31;2.80;;;1.20;;
7545;SDS011;3814;51.454;12.616;2022-12-29T03:19:02;2.58;;;1.30;;
7545;SDS011;3814;51.454;12.616;2022-12-29T03:21:42;3.33;;;1.85;;
7545;SDS011;3814;51.454;12.616;2022-12-29T03:24:29;2.83;;;1.30;;
7545;SDS011;3814;51.454;12.616;2022-12-29T03:26:56;2.53;;;1.17;;
7545;SDS011;3814;51.454;12.616;2022-12-29T03:29:24;2.65;;;1.15;;
7545;SDS011;3814;51.454;12.616;2022-12-29T03:31:52;2.22;;;1.20;;
7545;SDS011;3814;51.454;12.616;2022-12-29T03:34:20;3.38;;;1.40;;
7545;SDS011;3814;51.454;12.616;2022-12-29T03:36:57;3.65;;;1.35;;
7545;SDS011;3814;51.454;12.616;2022-12-29T03:39:26;3.50;;;1.30;;
7545;SDS011;3814;51.454;12.616;2022-12-29T03:41:54;2.35;;;1.33;;
7545;SDS011;3814;51.454;12.616;2022-12-29T03:44:31;2.53;;;1.23;;
7545;SDS011;3814;51.454;12.616;2022-12-29T03:47:04;4.05;;;1.30;;
7545;SDS011;3814;51.454;12.616;2022-12-29T03:49:30;3.00;;;1.20;;
7545;SDS011;3814;51.454;12.616;2022-12-29T03:51:56;4.72;;;1.48;;
7545;SDS011;3814;51.454;12.616;2022-12-29T03:54:21;2.70;;;1.40;;
7545;SDS011;3814;51.454;12.616;2022-12-29T03:56:47;2.95;;;1.30;;
7545;SDS011;3814;51.454;12.616;2022-12-29T03:59:12;2.63;;;1.27;;
7545;SDS011;3814;51.454;12.616;2022-12-29T04:01:37;2.92;;;1.30;;
7545;SDS011;3814;51.454;12.616;2022-12-29T04:04:03;2.47;;;1.38;;
7545;SDS011;3814;51.454;12.616;2022-12-29T04:06:28;3.03;;;1.13;;
7545;SDS011;3814;51.454;12.616;2022-12-29T04:08:54;3.42;;;1.45;;
7545;SDS011;3814;51.454;12.616;2022-12-29T04:11:19;2.50;;;1.20;;
7545;SDS011;3814;51.454;12.616;2022-12-29T04:13:45;2.17;;;1.20;;
7545;SDS011;3814;51.454;12.616;2022-12-29T04:16:11;4.47;;;1.60;;
7545;SDS011;3814;51.454;12.616;2022-12-29T04:18:36;2.13;;;1.20;;
7545;SDS011;3814;51.454;12.616;2022-12-29T04:21:01;3.55;;;1.10;;
7545;SDS011;3814;51.454;12.616;2022-12-29T04:23:31;2.28;;;1.10;;
7545;SDS011;3814;51.454;12.616;2022-12-29T04:25:58;1.98;;;1.20;;
7545;SDS011;3814;51.454;12.616;2022-12-29T04:28:24;2.30;;;1.20;;
7545;SDS011;3814;51.454;12.616;2022-12-29T04:30:50;4.90;;;1.40;;
7545;SDS011;3814;51.454;12.616;2022-12-29T04:33:15;2.55;;;1.30;;
7545;SDS011;3814;51.454;12.616;2022-12-29T04:35:41;4.30;;;1.60;;
7545;SDS011;3814;51.454;12.616;2022-12-29T04:38:08;3.40;;;1.30;;
7545;SDS011;3814;51.454;12.616;2022-12-29T04:40:33;2.30;;;1.23;;
7545;SDS011;3814;51.454;12.616;2022-12-29T04:42:59;4.32;;;1.30;;
7545;SDS011;3814;51.454;12.616;2022-12-29T04:45:24;3.15;;;1.10;;
7545;SDS011;3814;51.454;12.616;2022-12-29T04:47:49;2.97;;;1.13;;
7545;SDS011;3814;51.454;12.616;2022-12-29T04:50:15;3.53;;;1.30;;
7545;SDS011;3814;51.454;12.616;2022-12-29T04:52:40;2.85;;;1.35;;
7545;SDS011;3814;51.454;12.616;2022-12-29T04:55:06;2.72;;;1.27;;
7545;SDS011;3814;51.454;12.616;2022-12-29T04:57:31;2.08;;;1.10;;
7545;SDS011;3814;51.454;12.616;2022-12-29T04:59:57;2.40;;;1.17;;
7545;SDS011;3814;51.454;12.616;2022-12-29T05:02:22;2.55;;;1.20;;
7545;SDS011;3814;51.454;12.616;2022-12-29T05:04:48;3.78;;;1.20;;
7545;SDS011;3814;51.454;12.616;2022-12-29T05:07:14;2.22;;;1.10;;
7545;SDS011;3814;51.454;12.616;2022-12-29T05:09:39;2.65;;;1.20;;
7545;SDS011;3814;51.454;12.616;2022-12-29T05:12:05;4.57;;;1.80;;
7545;SDS011;3814;51.454;12.616;2022-12-29T05:14:30;2.20;;;1.00;;
7545;SDS011;3814;51.454;12.616;2022-12-29T05:16:56;3.83;;;1.30;;
7545;SDS011;3814;51.454;12.616;2022-12-29T05:19:21;1.88;;;1.20;;
7545;SDS011;3814;51.454;12.616;2022-12-29T05:21:46;2.42;;;1.08;;
7545;SDS011;3814;51.454;12.616;2022-12-29T05:24:12;1.90;;;1.15;;
7545;SDS011;3814;51.454;12.616;2022-12-29T05:26:37;1.95;;;0.95;;
7545;SDS011;3814;51.454;12.616;2022-12-29T05:29:03;2.33;;;1.00;;
7545;SDS011;3814;51.454;12.616;2022-12-29T05:31:29;2.40;;;1.17;;
7545;SDS011;3814;51.454;12.616;2022-12-29T05:33:54;3.05;;;1.10;;
7545;SDS011;3814;51.454;12.616;2022-12-29T05:36:19;2.50;;;1.00;;
7545;SDS011;3814;51.454;12.616;2022-12-29T05:38:45;1.98;;;1.00;;
7545;SDS011;3814;51.454;12.616;2022-12-29T05:41:10;3.33;;;0.90;;
7545;SDS011;3814;51.454;12.616;2022-12-29T05:43:36;2.47;;;1.10;;
7545;SDS011;3814;51.454;12.616;2022-12-29T05:46:01;3.08;;;1.05;;
7545;SDS011;3814;51.454;12.616;2022-12-29T05:48:27;3.10;;;1.10;;
7545;SDS011;3814;51.454;12.616;2022-12-29T05:50:52;2.38;;;1.02;;
7545;SDS011;3814;51.454;12.616;2022-12-29T05:53:18;2.20;;;1.13;;
7545;SDS011;3814;51.454;12.616;2022-12-29T05:55:44;2.22;;;1.20;;
7545;SDS011;3814;51.454;12.616;2022-12-29T05:58:09;3.13;;;1.10;;
7545;SDS011;3814;51.454;12.616;2022-12-29T06:00:35;2.35;;;1.08;;
7545;SDS011;3814;51.454;12.616;2022-12-29T06:03:00;3.08;;;1.30;;
7545;SDS011;3814;51.454;12.616;2022-12-29T06:05:25;4.13;;;1.42;;
7545;SDS011;3814;51.454;12.616;2022-12-29T06:07:51;2.75;;;1.30;;
7545;SDS011;3814;51.454;12.616;2022-12-29T06:10:16;2.63;;;1.30;;
7545;SDS011;3814;51.454;12.616;2022-12-29T06:12:42;4.00;;;1.17;;
7545;SDS011;3814;51.454;12.616;2022-12-29T06:15:08;2.05;;;1.25;;
7545;SDS011;3814;51.454;12.616;2022-12-29T06:17:33;2.88;;;1.10;;
7545;SDS011;3814;51.454;12.616;2022-12-29T06:19:59;4.03;;;1.40;;
7545;SDS011;3814;51.454;12.616;2022-12-29T06:22:24;3.10;;;1.33;;
7545;SDS011;3814;51.454;12.616;2022-12-29T06:24:50;2.85;;;1.40;;
7545;SDS011;3814;51.454;12.616;2022-12-29T06:27:15;3.10;;;1.35;;
7545;SDS011;3814;51.454;12.616;2022-12-29T06:29:40;2.55;;;1.50;;
7545;SDS011;3814;51.454;12.616;2022-12-29T06:32:07;2.70;;;1.33;;
7545;SDS011;3814;51.454;12.616;2022-12-29T06:34:33;2.45;;;1.27;;
7545;SDS011;3814;51.454;12.616;2022-12-29T06:36:58;2.53;;;1.50;;
7545;SDS011;3814;51.454;12.616;2022-12-29T06:39:24;3.42;;;1.23;;
7545;SDS011;3814;51.454;12.616;2022-12-29T06:41:51;3.67;;;1.30;;
7545;SDS011;3814;51.454;12.616;2022-12-29T06:44:17;4.78;;;1.30;;
7545;SDS011;3814;51.454;12.616;2022-12-29T06:46:43;2.72;;;1.20;;
7545;SDS011;3814;51.454;12.616;2022-12-29T06:49:08;4.47;;;1.38;;
7545;SDS011;3814;51.454;12.616;2022-12-29T06:51:33;2.92;;;1.30;;
7545;SDS011;3814;51.454;12.616;2022-12-29T06:53:59;1.80;;;1.00;;
7545;SDS011;3814;51.454;12.616;2022-12-29T06:56:24;3.10;;;1.23;;
7545;SDS011;3814;51.454;12.616;2022-12-29T06:58:49;3.03;;;1.20;;
7545;SDS011;3814;51.454;12.616;2022-12-29T07:01:15;2.90;;;1.08;;
7545;SDS011;3814;51.454;12.616;2022-12-29T07:03:43;2.58;;;1.27;;
7545;SDS011;3814;51.454;12.616;2022-12-29T07:06:09;3.30;;;1.17;;
7545;SDS011;3814;51.454;12.616;2022-12-29T07:08:34;4.22;;;1.30;;
7545;SDS011;3814;51.454;12.616;2022-12-29T07:11:00;3.15;;;1.00;;
7545;SDS011;3814;51.454;12.616;2022-12-29T07:13:25;2.45;;;1.23;;
7545;SDS011;3814;51.454;12.616;2022-12-29T07:15:50;3.17;;;1.30;;
7545;SDS011;3814;51.454;12.616;2022-12-29T07:18:16;1.92;;;1.13;;
7545;SDS011;3814;51.454;12.616;2022-12-29T07:20:41;3.10;;;1.20;;
7545;SDS011;3814;51.454;12.616;2022-12-29T07:23:07;3.50;;;1.25;;
7545;SDS011;3814;51.454;12.616;2022-12-29T07:25:32;2.42;;;1.20;;
7545;SDS011;3814;51.454;12.616;2022-12-29T07:27:59;2.33;;;1.17;;
7545;SDS011;3814;51.454;12.616;2022-12-29T07:30:25;2.75;;;1.08;;
7545;SDS011;3814;51.454;12.616;2022-12-29T07:32:50;2.13;;;1.00;;
7545;SDS011;3814;51.454;12.616;2022-12-29T08:24:30;4.20;;;1.20;;
7545;SDS011;3814;51.454;12.616;2022-12-29T08:27:10;5.50;;;1.30;;
7545;SDS011;3814;51.454;12.616;2022-12-29T08:29:37;3.33;;;1.30;;
7545;SDS011;3814;51.454;12.616;2022-12-29T08:32:12;2.38;;;1.05;;
7545;SDS011;3814;51.454;12.616;2022-12-29T08:34:37;2.05;;;1.00;;
7545;SDS011;3814;51.454;12.616;2022-12-29T08:44:48;3.35;;;1.15;;
7545;SDS011;3814;51.454;12.616;2022-12-29T08:47:17;3.30;;;1.17;;
7545;SDS011;3814;51.454;12.616;2022-12-29T08:52:28;2.88;;;1.45;;
7545;SDS011;3814;51.454;12.616;2022-12-29T08:55:32;4.05;;;1.50;;
7545;SDS011;3814;51.454;12.616;2022-12-29T08:58:10;2.70;;;1.15;;
7545;SDS011;3814;51.454;12.616;2022-12-29T09:47:32;1.98;;;1.20;;
7545;SDS011;3814;51.454;12.616;2022-12-29T09:50:33;2.83;;;1.20;;
7545;SDS011;3814;51.454;12.616;2022-12-29T09:53:01;3.17;;;1.23;;
7545;SDS011;3814;51.454;12.616;2022-12-29T09:55:41;2.83;;;1.10;;
7545;SDS011;3814;51.454;12.616;2022-12-29T10:00:48;3.35;;;1.17;;
7545;SDS011;3814;51.454;12.616;2022-12-29T10:08:34;3.75;;;1.40;;
7545;SDS011;3814;51.454;12.616;2022-12-29T10:11:14;2.35;;;1.20;;
7545;SDS011;3814;51.454;12.616;2022-12-29T10:19:32;4.38;;;1.20;;
7545;SDS011;3814;51.454;12.616;2022-12-29T10:24:50;2.88;;;1.00;;
7545;SDS011;3814;51.454;12.616;2022-12-29T10:27:16;3.10;;;1.10;;
7545;SDS011;3814;51.454;12.616;2022-12-29T10:29:48;1.80;;;1.10;;
7545;SDS011;3814;51.454;12.616;2022-12-29T10:32:20;3.50;;;1.23;;
7545;SDS011;3814;51.454;12.616;2022-12-29T10:34:51;2.33;;;1.10;;
7545;SDS011;3814;51.454;12.616;2022-12-29T10:39:57;3.78;;;1.30;;
7545;SDS011;3814;51.454;12.616;2022-12-29T10:42:36;2.30;;;1.13;;
7545;SDS011;3814;51.454;12.616;2022-12-29T10:45:05;2.65;;;1.17;;
7545;SDS011;3814;51.454;12.616;2022-12-29T10:47:33;2.38;;;1.13;;
7545;SDS011;3814;51.454;12.616;2022-12-29T10:50:00;3.03;;;1.20;;
7545;SDS011;3814;51.454;12.616;2022-12-29T10:52:27;2.63;;;1.30;;
7545;SDS011;3814;51.454;12.616;2022-12-29T10:54:59;3.33;;;1.02;;
7545;SDS011;3814;51.454;12.616;2022-12-29T10:57:27;2.72;;;0.98;;
7545;SDS011;3814;51.454;12.616;2022-12-29T10:59:56;3.90;;;1.20;;
7545;SDS011;3814;51.454;12.616;2022-12-29T11:08:12;2.63;;;1.10;;
7545;SDS011;3814;51.454;12.616;2022-12-29T11:10:40;3.85;;;1.27;;
7545;SDS011;3814;51.454;12.616;2022-12-29T11:15:44;3.25;;;1.30;;
7545;SDS011;3814;51.454;12.616;2022-12-29T11:18:44;3.28;;;1.17;;
7545;SDS011;3814;51.454;12.616;2022-12-29T11:21:03;3.83;;;1.20;;
7545;SDS011;3814;51.454;12.616;2022-12-29T11:26:20;3.05;;;1.25;;
7545;SDS011;3814;51.454;12.616;2022-12-29T11:29:02;2.50;;;1.10;;
7545;SDS011;3814;51.454;12.616;2022-12-29T11:31:47;5.07;;;1.20;;
7545;SDS011;3814;51.454;12.616;2022-12-29T11:34:16;2.47;;;1.00;;
7545;SDS011;3814;51.454;12.616;2022-12-29T11:36:43;2.58;;;1.10;;
7545;SDS011;3814;51.454;12.616;2022-12-29T11:39:16;5.07;;;2.38;;
7545;SDS011;3814;51.454;12.616;2022-12-29T11:41:57;4.43;;;1.70;;
7545;SDS011;3814;51.454;12.616;2022-12-29T11:44:23;3.30;;;1.60;;
7545;SDS011;3814;51.454;12.616;2022-12-29T11:46:49;2.15;;;1.00;;
7545;SDS011;3814;51.454;12.616;2022-12-29T11:49:22;2.83;;;1.17;;
7545;SDS011;3814;51.454;12.616;2022-12-29T11:51:50;1.83;;;1.10;;
7545;SDS011;3814;51.454;12.616;2022-12-29T11:54:27;3.85;;;0.98;;
7545;SDS011;3814;51.454;12.616;2022-12-29T11:56:55;1.85;;;1.05;;
7545;SDS011;3814;51.454;12.616;2022-12-29T12:01:59;1.95;;;1.00;;
7545;SDS011;3814;51.454;12.616;2022-12-29T12:04:26;3.28;;;1.10;;
7545;SDS011;3814;51.454;12.616;2022-12-29T12:09:42;2.47;;;1.02;;
7545;SDS011;3814;51.454;12.616;2022-12-29T13:44:43;1.77;;;1.17;;
7545;SDS011;3814;51.454;12.616;2022-12-29T15:04:58;1.25;;;0.77;;
7545;SDS011;3814;51.454;12.616;2022-12-29T15:07:25;1.40;;;0.75;;
7545;SDS011;3814;51.454;12.616;2022-12-29T15:09:53;2.25;;;0.82;;
7545;SDS011;3814;51.454;12.616;2022-12-29T15:14:54;1.73;;;0.68;;
7545;SDS011;3814;51.454;12.616;2022-12-29T15:17:25;1.15;;;0.63;;
7545;SDS011;3814;51.454;12.616;2022-12-29T15:19:54;0.82;;;0.60;;
7545;SDS011;3814;51.454;12.616;2022-12-29T15:22:20;1.42;;;0.80;;
7545;SDS011;3814;51.454;12.616;2022-12-29T15:24:46;3.13;;;0.70;;
7545;SDS011;3814;51.454;12.616;2022-12-29T15:27:13;1.33;;;0.50;;
7545;SDS011;3814;51.454;12.616;2022-12-29T15:29:40;1.23;;;0.75;;
7545;SDS011;3814;51.454;12.616;2022-12-29T15:32:17;1.20;;;0.70;;
7545;SDS011;3814;51.454;12.616;2022-12-29T15:34:46;1.20;;;0.70;;
7545;SDS011;3814;51.454;12.616;2022-12-29T15:37:19;1.80;;;0.70;;
7545;SDS011;3814;51.454;12.616;2022-12-29T15:39:53;2.63;;;0.60;;
7545;SDS011;3814;51.454;12.616;2022-12-29T15:42:40;1.42;;;0.60;;
7545;SDS011;3814;51.454;12.616;2022-12-29T15:45:23;0.98;;;0.60;;
7545;SDS011;3814;51.454;12.616;2022-12-29T15:47:51;1.88;;;0.82;;
7545;SDS011;3814;51.454;12.616;2022-12-29T15:50:22;1.88;;;0.80;;
7545;SDS011;3814;51.454;12.616;2022-12-29T15:52:53;1.90;;;0.90;;
7545;SDS011;3814;51.454;12.616;2022-12-29T15:55:29;1.70;;;0.88;;
7545;SDS011;3814;51.454;12.616;2022-12-29T15:58:00;2.03;;;1.00;;
7545;SDS011;3814;51.454;12.616;2022-12-29T16:00:31;3.08;;;1.10;;
7545;SDS011;3814;51.454;12.616;2022-12-29T16:03:00;1.88;;;0.88;;
7545;SDS011;3814;51.454;12.616;2022-12-29T16:05:36;2.15;;;0.80;;
7545;SDS011;3814;51.454;12.616;2022-12-29T16:08:03;1.40;;;0.70;;
7545;SDS011;3814;51.454;12.616;2022-12-29T16:11:02;1.67;;;0.75;;
7545;SDS011;3814;51.454;12.616;2022-12-29T16:13:33;3.80;;;0.70;;
7545;SDS011;3814;51.454;12.616;2022-12-29T16:16:25;1.33;;;0.93;;
7545;SDS011;3814;51.454;12.616;2022-12-29T16:18:46;5.50;;;1.50;;
7545;SDS011;3814;51.454;12.616;2022-12-29T16:21:25;4.22;;;1.90;;
7545;SDS011;3814;51.454;12.616;2022-12-29T16:23:53;3.03;;;1.50;;
7545;SDS011;3814;51.454;12.616;2022-12-29T16:26:20;3.35;;;1.67;;
7545;SDS011;3814;51.454;12.616;2022-12-29T16:28:48;3.60;;;1.85;;
7545;SDS011;3814;51.454;12.616;2022-12-29T16:31:17;4.63;;;2.55;;
7545;SDS011;3814;51.454;12.616;2022-12-29T16:33:53;4.63;;;2.17;;
7545;SDS011;3814;51.454;12.616;2022-12-29T16:41:49;6.20;;;2.47;;
7545;SDS011;3814;51.454;12.616;2022-12-29T16:44:28;4.40;;;1.73;;
7545;SDS011;3814;51.454;12.616;2022-12-29T16:49:35;9.85;;;4.10;;
7545;SDS011;3814;51.454;12.616;2022-12-29T16:52:19;6.68;;;2.88;;
7545;SDS011;3814;51.454;12.616;2022-12-29T16:54:48;5.80;;;2.90;;
7545;SDS011;3814;51.454;12.616;2022-12-29T16:57:20;5.07;;;2.55;;
7545;SDS011;3814;51.454;12.616;2022-12-29T16:59:47;4.53;;;2.30;;
7545;SDS011;3814;51.454;12.616;2022-12-29T17:02:19;3.83;;;2.00;;
7545;SDS011;3814;51.454;12.616;2022-12-29T17:04:45;4.35;;;1.80;;
7545;SDS011;3814;51.454;12.616;2022-12-29T17:07:17;3.60;;;1.60;;
7545;SDS011;3814;51.454;12.616;2022-12-29T17:09:47;5.50;;;1.70;;
7545;SDS011;3814;51.454;12.616;2022-12-29T17:12:14;5.00;;;1.25;;
7545;SDS011;3814;51.454;12.616;2022-12-29T17:22:48;6.20;;;1.75;;
7545;SDS011;3814;51.454;12.616;2022-12-29T17:25:35;3.88;;;1.70;;
7545;SDS011;3814;51.454;12.616;2022-12-29T17:28:34;3.47;;;1.52;;
7545;SDS011;3814;51.454;12.616;2022-12-29T17:30:55;4.25;;;1.50;;
7545;SDS011;3814;51.454;12.616;2022-12-29T17:33:26;5.00;;;2.22;;
7545;SDS011;3814;51.454;12.616;2022-12-29T17:35:51;6.70;;;2.70;;
7545;SDS011;3814;51.454;12.616;2022-12-29T17:40:43;3.35;;;1.80;;
7545;SDS011;3814;51.454;12.616;2022-12-29T17:43:09;2.78;;;1.60;;
7545;SDS011;3814;51.454;12.616;2022-12-29T17:45:37;4.55;;;1.50;;
7545;SDS011;3814;51.454;12.616;2022-12-29T17:48:04;5.93;;;1.60;;
7545;SDS011;3814;51.454;12.616;2022-12-29T17:50:35;4.07;;;1.40;;
7545;SDS011;3814;51.454;12.616;2022-12-29T17:53:11;3.45;;;1.70;;
7545;SDS011;3814;51.454;12.616;2022-12-29T17:55:39;2.88;;;1.35;;
7545;SDS011;3814;51.454;12.616;2022-12-29T18:00:47;2.38;;;1.35;;
7545;SDS011;3814;51.454;12.616;2022-12-29T18:03:20;4.47;;;1.38;;
7545;SDS011;3814;51.454;12.616;2022-12-29T18:05:59;3.92;;;1.42;;
7545;SDS011;3814;51.454;12.616;2022-12-29T18:08:24;3.15;;;1.23;;
7545;SDS011;3814;51.454;12.616;2022-12-29T18:10:52;3.65;;;1.50;;
7545;SDS011;3814;51.454;12.616;2022-12-29T18:13:28;3.80;;;1.30;;
7545;SDS011;3814;51.454;12.616;2022-12-29T18:15:54;2.58;;;1.23;;
7545;SDS011;3814;51.454;12.616;2022-12-29T18:18:21;4.60;;;1.48;;
7545;SDS011;3814;51.454;12.616;2022-12-29T18:20:48;3.65;;;1.23;;
7545;SDS011;3814;51.454;12.616;2022-12-29T18:23:23;2.15;;;1.00;;
7545;SDS011;3814;51.454;12.616;2022-12-29T18:25:51;3.65;;;1.08;;
7545;SDS011;3814;51.454;12.616;2022-12-29T18:28:25;4.07;;;1.00;;
7545;SDS011;3814;51.454;12.616;2022-12-29T18:30:51;3.22;;;1.23;;
7545;SDS011;3814;51.454;12.616;2022-12-29T18:33:17;4.82;;;1.42;;
7545;SDS011;3814;51.454;12.616;2022-12-29T18:35:45;3.85;;;1.23;;
7545;SDS011;3814;51.454;12.616;2022-12-29T18:38:16;3.40;;;1.23;;
7545;SDS011;3814;51.454;12.616;2022-12-29T18:40:42;3.53;;;1.25;;
7545;SDS011;3814;51.454;12.616;2022-12-29T18:43:09;2.97;;;1.10;;
7545;SDS011;3814;51.454;12.616;2022-12-29T18:45:37;2.75;;;1.17;;
7545;SDS011;3814;51.454;12.616;2022-12-29T18:48:02;2.70;;;1.00;;
7545;SDS011;3814;51.454;12.616;2022-12-29T18:50:28;2.90;;;1.02;;
7545;SDS011;3814;51.454;12.616;2022-12-29T18:52:53;3.60;;;0.95;;
7545;SDS011;3814;51.454;12.616;2022-12-29T18:55:20;2.75;;;1.15;;
7545;SDS011;3814;51.454;12.616;2022-12-29T18:57:47;3.05;;;1.25;;
7545;SDS011;3814;51.454;12.616;2022-12-29T19:00:13;2.75;;;0.98;;
7545;SDS011;3814;51.454;12.616;2022-12-29T19:02:40;3.50;;;1.13;;
7545;SDS011;3814;51.454;12.616;2022-12-29T19:05:16;4.03;;;1.10;;
7545;SDS011;3814;51.454;12.616;2022-12-29T19:07:44;4.00;;;1.10;;
7545;SDS011;3814;51.454;12.616;2022-12-29T19:10:10;2.63;;;1.20;;
7545;SDS011;3814;51.454;12.616;2022-12-29T19:12:35;4.03;;;1.45;;
7545;SDS011;3814;51.454;12.616;2022-12-29T19:15:01;3.13;;;1.33;;
7545;SDS011;3814;51.454;12.616;2022-12-29T19:17:31;3.15;;;1.30;;
7545;SDS011;3814;51.454;12.616;2022-12-29T19:20:02;3.63;;;1.13;;
7545;SDS011;3814;51.454;12.616;2022-12-29T19:22:28;3.58;;;1.30;;
7545;SDS011;3814;51.454;12.616;2022-12-29T19:24:53;3.13;;;1.30;;
7545;SDS011;3814;51.454;12.616;2022-12-29T19:27:22;5.00;;;1.23;;
7545;SDS011;3814;51.454;12.616;2022-12-29T19:29:47;5.70;;;2.10;;
7545;SDS011;3814;51.454;12.616;2022-12-29T19:32:13;4.30;;;1.70;;
7545;SDS011;3814;51.454;12.616;2022-12-29T19:34:38;3.67;;;1.67;;
7545;SDS011;3814;51.454;12.616;2022-12-29T19:37:04;3.08;;;1.40;;
7545;SDS011;3814;51.454;12.616;2022-12-29T19:39:29;2.83;;;1.40;;
7545;SDS011;3814;51.454;12.616;2022-12-29T19:41:54;3.85;;;1.27;;
7545;SDS011;3814;51.454;12.616;2022-12-29T19:44:20;2.53;;;1.48;;
7545;SDS011;3814;51.454;12.616;2022-12-29T19:46:46;2.50;;;1.23;;
7545;SDS011;3814;51.454;12.616;2022-12-29T19:49:11;2.83;;;1.30;;
7545;SDS011;3814;51.454;12.616;2022-12-29T19:51:36;3.70;;;1.50;;
7545;SDS011;3814;51.454;12.616;2022-12-29T19:54:02;3.28;;;1.33;;
7545;SDS011;3814;51.454;12.616;2022-12-29T19:56:27;4.45;;;1.50;;
7545;SDS011;3814;51.454;12.616;2022-12-29T19:58:52;4.53;;;1.60;;
7545;SDS011;3814;51.454;12.616;2022-12-29T20:01:19;3.53;;;1.10;;
7545;SDS011;3814;51.454;12.616;2022-12-29T20:03:46;3.67;;;1.60;;
7545;SDS011;3814;51.454;12.616;2022-12-29T20:06:12;4.05;;;1.80;;
7545;SDS011;3814;51.454;12.616;2022-12-29T20:08:38;6.13;;;2.50;;
7545;SDS011;3814;51.454;12.616;2022-12-29T20:11:05;5.90;;;1.80;;
7545;SDS011;3814;51.454;12.616;2022-12-29T20:13:32;4.03;;;1.67;;
7545;SDS011;3814;51.454;12.616;2022-12-29T20:15:58;6.57;;;2.15;;
7545;SDS011;3814;51.454;12.616;2022-12-29T20:18:25;5.78;;;2.08;;
7545;SDS011;3814;51.454;12.616;2022-12-29T20:20:50;3.85;;;1.52;;
7545;SDS011;3814;51.454;12.616;2022-12-29T20:23:15;4.30;;;1.95;;
7545;SDS011;3814;51.454;12.616;2022-12-29T20:25:41;4.25;;;1.98;;
7545;SDS011;3814;51.454;12.616;2022-12-29T20:28:08;4.28;;;1.90;;
7545;SDS011;3814;51.454;12.616;2022-12-29T20:30:33;3.63;;;1.70;;
7545;SDS011;3814;51.454;12.616;2022-12-29T20:32:59;3.70;;;1.58;;
7545;SDS011;3814;51.454;12.616;2022-12-29T20:35:24;4.03;;;1.65;;
7545;SDS011;3814;51.454;12.616;2022-12-29T20:37:50;3.97;;;1.30;;
7545;SDS011;3814;51.454;12.616;2022-12-29T20:40:15;5.47;;;1.67;;
7545;SDS011;3814;51.454;12.616;2022-12-29T20:42:41;2.15;;;1.40;;
7545;SDS011;3814;51.454;12.616;2022-12-29T20:45:06;3.47;;;1.45;;
7545;SDS011;3814;51.454;12.616;2022-12-29T20:47:31;3.42;;;1.70;;
7545;SDS011;3814;51.454;12.616;2022-12-29T20:49:57;6.68;;;1.70;;
7545;SDS011;3814;51.454;12.616;2022-12-29T20:52:22;4.30;;;1.70;;
7545;SDS011;3814;51.454;12.616;2022-12-29T20:54:47;3.00;;;1.52;;
7545;SDS011;3814;51.454;12.616;2022-12-29T20:57:13;3.60;;;1.75;;
7545;SDS011;3814;51.454;12.616;2022-12-29T20:59:38;4.38;;;1.80;;
7545;SDS011;3814;51.454;12.616;2022-12-29T21:02:03;5.82;;;1.98;;
7545;SDS011;3814;51.454;12.616;2022-12-29T21:04:29;4.93;;;1.95;;
7545;SDS011;3814;51.454;12.616;2022-12-29T21:06:55;9.48;;;3.50;;
7545;SDS011;3814;51.454;12.616;2022-12-29T21:09:20;7.07;;;2.63;;
7545;SDS011;3814;51.454;12.616;2022-12-29T21:11:46;10.70;;;4.05;;
7545;SDS011;3814;51.454;12.616;2022-12-29T21:14:12;8.45;;;3.25;;
7545;SDS011;3814;51.454;12.616;2022-12-29T21:16:37;7.78;;;2.75;;
7545;SDS011;3814;51.454;12.616;2022-12-29T21:19:03;8.88;;;3.28;;